Time;durP1;ratioP1;P1;durP2;ratioP2;P2;SDS_P1;SDS_P2;PMS_P1;PMS_P2;Temp;Humidity;BMP_temperature;BMP_pressure;BME280_temperature;BME280_humidity;BME280_pressure;Samples;Min_cycle;Max_cycle;Signal;HPM_P1;HPM_P2
2021/03/18 00:19:24;;;;;;;136.80;49.98;;;;;;;-1.13;76.00;101223.84;1893554;75;22594;-69
2021/03/18 00:21:51;;;;;;;142.85;52.00;;;;;;;-1.19;76.04;101225.89;1863059;77;21191;-69
2021/03/18 00:24:17;;;;;;;138.92;51.55;;;;;;;-1.23;76.07;101217.34;1863509;77;21528;-69
2021/03/18 00:26:43;;;;;;;158.00;61.23;;;;;;;-1.22;76.12;101218.20;1863728;77;21561;-70
2021/03/18 00:29:10;;;;;;;160.03;61.08;;;;;;;-1.27;76.18;101213.67;1863615;77;21119;-69
2021/03/18 00:31:36;;;;;;;144.77;56.60;;;;;;;-1.26;76.25;101221.42;1863717;77;21854;-69
2021/03/18 00:34:03;;;;;;;144.72;59.65;;;;;;;-1.23;76.28;101226.99;1863704;77;21558;-69
2021/03/18 00:36:29;;;;;;;1523.65;700.20;;;;;;;-1.24;76.33;101221.36;1863795;77;21190;-69
2021/03/18 00:38:55;;;;;;;636.47;281.27;;;;;;;-1.30;76.40;101220.36;1863614;76;21143;-70
2021/03/18 00:41:22;;;;;;;280.75;112.80;;;;;;;-1.35;76.45;101221.03;1861227;77;21103;-69
2021/03/18 00:43:48;;;;;;;205.75;82.70;;;;;;;-1.37;76.49;101221.58;1843351;77;21124;-69
2021/03/18 00:46:14;;;;;;;178.32;67.82;;;;;;;-1.40;76.52;101220.39;1848125;77;21134;-69
2021/03/18 00:48:41;;;;;;;132.30;53.80;;;;;;;-1.40;76.56;101224.31;1863786;77;21188;-69
2021/03/18 00:51:11;;;;;;;134.45;52.03;;;;;;;-1.46;76.57;101223.31;1863596;77;21151;-69
2021/03/18 00:53:41;;;;;;;158.35;60.83;;;;;;;-1.45;76.62;101221.09;1863622;77;21123;-69
2021/03/18 00:56:12;;;;;;;156.05;62.67;;;;;;;-1.48;76.67;101221.24;1863334;77;21194;-69
2021/03/18 00:58:40;;;;;;;115.08;44.58;;;;;;;-1.52;76.73;101210.94;1863572;77;21600;-69
2021/03/18 01:01:07;;;;;;;141.88;59.13;;;;;;;-1.50;76.77;101208.23;1846811;77;21190;-69
2021/03/18 01:03:36;;;;;;;138.57;56.10;;;;;;;-1.51;76.80;101212.61;1829628;78;21135;-69
2021/03/18 01:06:08;;;;;;;99.80;45.50;;;;;;;-1.50;76.84;101213.45;1845525;77;21175;-69
2021/03/18 01:08:35;;;;;;;132.45;53.20;;;;;;;-1.50;76.88;101210.84;1863548;76;21095;-69
2021/03/18 01:11:05;;;;;;;131.90;54.77;;;;;;;-1.46;76.94;101216.77;1863624;77;21123;-70
2021/03/18 01:13:32;;;;;;;180.10;72.22;;;;;;;-1.51;76.95;101215.22;1863709;76;21100;-69
2021/03/18 01:16:09;;;;;;;129.55;56.08;;;;;;;-1.56;77.02;101212.45;1836497;77;21103;-69
2021/03/18 01:18:41;;;;;;;99.70;44.05;;;;;;;-1.62;77.03;101214.88;1828904;78;21154;-69
2021/03/18 01:21:08;;;;;;;90.40;37.75;;;;;;;-1.63;77.07;101211.91;1829579;78;21100;-69
2021/03/18 01:23:34;;;;;;;85.25;36.85;;;;;;;-1.64;77.07;101211.50;1829381;78;21166;-69
2021/03/18 01:26:01;;;;;;;100.00;41.58;;;;;;;-1.68;77.08;101207.79;1803831;78;22168;-69
2021/03/18 01:28:28;;;;;;;99.35;40.73;;;;;;;-1.67;77.13;101206.42;1774931;80;21162;-69
2021/03/18 01:30:55;;;;;;;92.47;40.52;;;;;;;-1.68;77.15;101208.64;1774536;80;21112;-69
2021/03/18 01:33:21;;;;;;;88.55;39.78;;;;;;;-1.68;77.18;101207.34;1774472;80;21127;-69
2021/03/18 01:35:48;;;;;;;130.43;47.60;;;;;;;-1.68;77.25;101211.71;1774606;80;21041;-69
2021/03/18 01:38:14;;;;;;;132.30;50.10;;;;;;;-1.65;77.29;101211.11;1774367;80;21258;-69
2021/03/18 01:40:41;;;;;;;107.37;43.58;;;;;;;-1.66;77.31;101212.05;1774500;80;21191;-69
2021/03/18 01:43:07;;;;;;;76.53;37.17;;;;;;;-1.65;77.36;101212.41;1774517;80;21123;-69
2021/03/18 01:45:33;;;;;;;63.60;31.15;;;;;;;-1.59;77.38;101208.23;1790963;78;21126;-69
2021/03/18 01:47:59;;;;;;;63.15;30.62;;;;;;;-1.55;77.40;101203.20;1829252;78;21170;-69
2021/03/18 01:50:27;;;;;;;70.97;32.73;;;;;;;-1.49;77.43;101203.84;1828998;78;21239;-69
2021/03/18 01:52:54;;;;;;;71.47;33.08;;;;;;;-1.44;77.44;101203.18;1829054;78;21127;-69
2021/03/18 01:55:40;;;;;;;68.17;32.67;;;;;;;-1.43;77.45;101209.63;1829008;78;21128;-69
2021/03/18 01:58:06;;;;;;;78.52;37.30;;;;;;;-1.42;77.51;101206.55;1829048;78;21147;-69
2021/03/18 02:00:34;;;;;;;65.80;28.70;;;;;;;-1.36;77.52;101204.94;1829003;78;21670;-69
2021/03/18 02:03:01;;;;;;;72.08;29.92;;;;;;;-1.34;77.54;101209.20;1829052;78;21244;-69
2021/03/18 02:05:28;;;;;;;68.25;33.13;;;;;;;-1.30;77.55;101212.52;1819592;78;21131;-70
2021/03/18 02:07:54;;;;;;;62.67;30.00;;;;;;;-1.34;77.56;101200.50;1796132;79;21122;-69
2021/03/18 02:10:23;;;;;;;70.97;31.35;;;;;;;-1.38;77.60;101196.34;1796451;79;21102;-69
2021/03/18 02:12:50;;;;;;;88.87;35.63;;;;;;;-1.37;77.62;101201.96;1796479;79;21134;-69
2021/03/18 02:15:16;;;;;;;88.67;35.73;;;;;;;-1.34;77.64;101207.89;1796367;79;21503;-69
2021/03/18 02:18:10;;;;;;;82.37;36.45;;;;;;;-1.32;77.64;101204.73;1795686;79;21122;-70
2021/03/18 02:20:50;;;;;;;90.60;38.67;;;;;;;-1.36;77.69;101204.94;1796528;79;21108;-69
2021/03/18 02:23:58;;;;;;;81.80;33.80;;;;;;;-1.34;77.71;101205.73;1796178;79;21146;-69
2021/03/18 02:27:00;;;;;;;63.80;28.50;;;;;;;-1.32;77.76;101215.65;1817074;78;21787;-69
2021/03/18 02:30:08;;;;;;;69.60;30.32;;;;;;;-1.43;77.77;101207.47;1825125;78;21207;-69
2021/03/18 02:33:15;;;;;;;64.65;27.50;;;;;;;-1.44;77.80;101209.72;1826355;78;21657;-69
2021/03/18 02:36:07;;;;;;;62.35;28.65;;;;;;;-1.47;77.83;101206.77;1825094;78;21145;-69
2021/03/18 02:38:45;;;;;;;79.07;34.50;;;;;;;-1.49;77.86;101209.08;1823075;78;21117;-69
2021/03/18 02:41:15;;;;;;;86.75;35.70;;;;;;;-1.59;77.88;101213.45;1801175;78;21145;-69
2021/03/18 02:43:49;;;;;;;75.80;32.15;;;;;;;-1.68;77.88;101220.41;1826586;78;21272;-70
2021/03/18 02:46:15;;;;;;;78.40;33.33;;;;;;;-1.78;77.93;101220.45;1826015;78;21129;-69
2021/03/18 02:48:42;;;;;;;71.35;31.55;;;;;;;-1.82;77.94;101218.90;1826447;78;21547;-69
2021/03/18 02:51:13;;;;;;;114.55;42.98;;;;;;;-1.82;77.95;101213.67;1826064;78;21116;-69
2021/03/18 02:53:40;;;;;;;72.82;31.02;;;;;;;-1.85;77.99;101203.36;1826237;78;21164;-69
2021/03/18 02:56:07;;;;;;;57.05;26.15;;;;;;;-1.80;78.00;101197.47;1825990;78;21586;-70
2021/03/18 02:58:36;;;;;;;56.05;25.60;;;;;;;-1.77;77.99;101199.94;1825803;78;21204;-70
2021/03/18 03:01:04;;;;;;;43.50;19.87;;;;;;;-1.77;78.04;101196.47;1822765;78;21590;-70
2021/03/18 03:03:32;;;;;;;49.27;22.00;;;;;;;-1.72;78.08;101187.94;1826366;78;21132;-70
2021/03/18 03:05:58;;;;;;;45.00;19.15;;;;;;;-1.65;78.09;101188.03;1826358;78;21059;-70
2021/03/18 03:08:25;;;;;;;39.30;18.62;;;;;;;-1.62;78.11;101193.96;1826045;78;21228;-70
2021/03/18 03:10:53;;;;;;;42.58;18.82;;;;;;;-1.65;78.13;101186.27;1826298;78;21137;-70
2021/03/18 03:13:20;;;;;;;50.73;22.07;;;;;;;-1.66;78.16;101187.22;1826356;78;21133;-70
2021/03/18 03:15:48;;;;;;;50.67;21.82;;;;;;;-1.74;78.16;101183.25;1826350;77;21141;-70
2021/03/18 03:18:15;;;;;;;45.28;20.60;;;;;;;-1.81;78.21;101179.23;1780948;78;21118;-70
2021/03/18 03:20:41;;;;;;;47.30;21.52;;;;;;;-1.81;78.27;101177.47;1763400;80;21293;-69
2021/03/18 03:23:08;;;;;;;43.00;20.40;;;;;;;-1.79;78.28;101175.62;1773649;80;21078;-70
2021/03/18 03:25:36;;;;;;;39.42;16.17;;;;;;;-1.76;78.29;101173.34;1792019;80;21153;-70
2021/03/18 03:28:10;;;;;;;50.85;24.07;;;;;;;-1.71;78.29;101189.19;1792206;80;21669;-70
2021/03/18 03:30:38;;;;;;;58.42;23.52;;;;;;;-1.79;78.32;101183.91;1792199;80;21105;-70
2021/03/18 03:33:06;;;;;;;66.35;29.77;;;;;;;-1.90;78.36;101187.03;1792096;80;21876;-70
2021/03/18 03:35:33;;;;;;;49.15;22.05;;;;;;;-1.88;78.36;101188.28;1792005;80;21585;-70
2021/03/18 03:38:00;;;;;;;47.13;21.10;;;;;;;-1.90;78.38;101183.11;1767044;80;21147;-70
2021/03/18 03:40:26;;;;;;;42.65;19.40;;;;;;;-1.96;78.37;101187.33;1763694;81;21143;-70
2021/03/18 03:42:53;;;;;;;39.18;18.82;;;;;;;-1.99;78.38;101192.70;1770183;80;21141;-70
2021/03/18 03:45:19;;;;;;;30.40;16.05;;;;;;;-1.97;78.42;101186.93;1792213;80;21216;-70
2021/03/18 03:47:46;;;;;;;36.83;17.60;;;;;;;-1.93;78.44;101187.18;1789525;80;21118;-70
2021/03/18 03:50:17;;;;;;;48.80;22.27;;;;;;;-1.97;78.46;101186.93;1792165;80;21125;-69
2021/03/18 03:53:06;;;;;;;36.65;18.50;;;;;;;-1.98;78.53;101186.56;1792205;80;21144;-70
2021/03/18 03:56:11;;;;;;;47.55;20.97;;;;;;;-1.96;78.55;101188.64;1792109;80;21551;-70
2021/03/18 03:58:57;;;;;;;45.17;18.57;;;;;;;-1.95;78.59;101189.48;1792234;80;21219;-70
2021/03/18 04:01:38;;;;;;;46.20;19.82;;;;;;;-2.02;78.66;101181.94;1791446;79;21615;-70
2021/03/18 04:04:20;;;;;;;53.75;23.55;;;;;;;-2.05;78.68;101183.84;1792072;80;21133;-69
2021/03/18 04:06:51;;;;;;;61.20;25.50;;;;;;;-2.02;78.68;101195.46;1792175;80;21165;-69
2021/03/18 04:09:17;;;;;;;56.40;24.98;;;;;;;-2.08;78.69;101194.45;1770712;80;21135;-69
2021/03/18 04:11:43;;;;;;;51.40;24.92;;;;;;;-2.14;78.72;101197.31;1763557;81;21192;-69
2021/03/18 04:14:12;;;;;;;64.10;25.68;;;;;;;-2.16;78.75;101191.33;1763405;81;21143;-69
2021/03/18 04:16:39;;;;;;;51.68;25.08;;;;;;;-2.16;78.79;101196.55;1763704;81;21102;-69
2021/03/18 04:19:06;;;;;;;57.43;24.77;;;;;;;-2.16;78.77;101204.39;1749312;79;21160;-70
2021/03/18 04:21:37;;;;;;;57.50;24.12;;;;;;;-2.20;78.79;101215.89;1796147;79;21142;-69
2021/03/18 04:24:04;;;;;;;69.45;26.57;;;;;;;-2.22;78.81;101221.66;1796475;79;21208;-69
2021/03/18 04:26:33;;;;;;;57.98;26.55;;;;;;;-2.32;78.81;101213.84;1796081;79;21131;-69
2021/03/18 04:29:01;;;;;;;65.57;27.93;;;;;;;-2.34;78.83;101213.05;1795297;79;21213;-69
2021/03/18 04:31:30;;;;;;;69.90;30.45;;;;;;;-2.42;78.88;101208.61;1825199;78;21175;-69
2021/03/18 04:33:57;;;;;;;59.70;28.70;;;;;;;-2.44;78.89;101202.17;1828900;78;21553;-69
2021/03/18 04:36:23;;;;;;;65.85;29.48;;;;;;;-2.41;78.89;101201.18;1828656;78;22057;-69
2021/03/18 04:38:50;;;;;;;60.90;29.25;;;;;;;-2.37;78.85;101202.74;1828783;78;21154;-69
2021/03/18 04:41:17;;;;;;;72.92;30.85;;;;;;;-2.34;78.89;101209.13;1828977;78;21123;-69
2021/03/18 04:43:43;;;;;;;73.02;33.60;;;;;;;-2.33;78.90;101210.84;1806463;78;21186;-69
2021/03/18 04:46:09;;;;;;;69.75;33.63;;;;;;;-2.33;78.93;101207.77;1796508;79;21163;-69
2021/03/18 04:48:37;;;;;;;65.10;29.72;;;;;;;-2.30;78.98;101196.33;1796212;79;22242;-70
2021/03/18 04:51:07;;;;;;;60.28;29.32;;;;;;;-2.28;79.00;101197.09;1769789;79;21139;-69
2021/03/18 04:53:35;;;;;;;67.60;26.52;;;;;;;-2.29;79.03;101195.42;1797746;78;21127;-69
2021/03/18 04:56:08;;;;;;;48.80;25.12;;;;;;;-2.26;79.05;101197.89;1828839;78;21545;-69
2021/03/18 04:58:38;;;;;;;52.13;23.15;;;;;;;-2.22;79.06;101196.39;1828948;78;21127;-69
2021/03/18 05:01:04;;;;;;;;;;;;;;;-2.27;79.10;101201.41;1831645;78;21240;-69
2021/03/18 05:03:30;;;;;;;68.30;30.75;;;;;;;-2.35;79.12;101203.51;1828899;78;20448;-69
2021/03/18 05:05:57;;;;;;;60.17;29.95;;;;;;;-2.45;79.15;101203.08;1828894;78;21115;-69
2021/03/18 05:08:23;;;;;;;89.97;42.88;;;;;;;-2.46;79.17;101205.77;1826842;78;21135;-69
2021/03/18 05:10:50;;;;;;;89.90;43.98;;;;;;;-2.44;79.21;101205.23;1829190;78;21175;-69
2021/03/18 05:13:17;;;;;;;90.75;42.05;;;;;;;-2.34;79.22;101210.44;1829128;78;21138;-69
2021/03/18 05:15:43;;;;;;;92.17;42.73;;;;;;;-2.26;79.26;101209.64;1828991;77;21135;-69
2021/03/18 05:18:12;;;;;;;98.92;45.12;;;;;;;-2.23;79.28;101205.59;1828747;78;21123;-69
2021/03/18 05:20:41;;;;;;;88.45;40.78;;;;;;;-2.25;79.28;101200.41;1828531;78;21151;-69
2021/03/18 05:23:08;;;;;;;99.32;48.23;;;;;;;-2.26;79.31;101193.97;1829041;78;21107;-69
2021/03/18 05:25:34;;;;;;;141.90;64.40;;;;;;;-2.25;79.34;101194.38;1829104;78;21253;-69
2021/03/18 05:28:00;;;;;;;94.70;47.48;;;;;;;-2.22;79.37;101195.53;1829129;78;21139;-69
2021/03/18 05:30:27;;;;;;;77.35;37.60;;;;;;;-2.21;79.40;101191.53;1828930;78;21103;-69
2021/03/18 05:32:55;;;;;;;58.85;28.23;;;;;;;-2.17;79.44;101194.84;1801340;78;21120;-69
2021/03/18 05:35:21;;;;;;;39.83;22.00;;;;;;;-2.15;79.46;101196.95;1798829;79;21095;-69
2021/03/18 05:37:47;;;;;;;60.00;27.95;;;;;;;-2.15;79.47;101197.80;1798969;79;21185;-69
2021/03/18 05:40:15;;;;;;;67.72;32.25;;;;;;;-2.12;79.51;101191.58;1798773;79;21139;-69
2021/03/18 05:42:41;;;;;;;75.42;35.38;;;;;;;-2.08;79.53;101193.14;1798712;78;21143;-69
2021/03/18 05:45:11;;;;;;;82.88;41.35;;;;;;;-2.02;79.58;101194.16;1796406;79;21108;-69
2021/03/18 05:47:37;;;;;;;71.07;40.48;;;;;;;-1.98;79.63;101189.18;1796436;79;21515;-69
2021/03/18 05:50:10;;;;;;;73.35;46.65;;;;;;;-1.93;79.62;101187.64;1796500;79;21175;-69
2021/03/18 05:52:36;;;;;;;58.28;28.87;;;;;;;-1.88;79.67;101190.44;1796326;79;21135;-69
2021/03/18 05:55:03;;;;;;;49.73;24.72;;;;;;;-1.83;79.71;101189.75;1798292;78;21166;-69
2021/03/18 05:57:30;;;;;;;34.23;18.80;;;;;;;-1.72;79.74;101186.63;1828991;78;21536;-69
2021/03/18 05:59:56;;;;;;;33.23;17.17;;;;;;;-1.51;79.79;101182.98;1829143;78;21127;-70
2021/03/18 06:02:22;;;;;;;38.58;16.07;;;;;;;-1.08;79.66;101183.03;1828966;78;21194;-70
2021/03/18 06:04:49;;;;;;;34.83;15.70;;;;;;;-0.78;79.56;101177.57;1828951;78;21126;-70
2021/03/18 06:07:15;;;;;;;33.30;14.85;;;;;;;-0.69;79.62;101171.00;1828894;78;21123;-70
2021/03/18 06:09:41;;;;;;;26.27;14.45;;;;;;;-0.77;79.70;101171.39;1828605;78;21122;-70
2021/03/18 06:12:08;;;;;;;30.32;14.07;;;;;;;-0.76;79.80;101173.55;1829020;78;21870;-70
2021/03/18 06:14:34;;;;;;;24.80;13.10;;;;;;;-0.77;79.88;101170.08;1828363;77;21939;-70
2021/03/18 06:17:00;;;;;;;29.52;14.95;;;;;;;-0.76;79.93;101173.09;1829052;78;21143;-71
2021/03/18 06:19:27;;;;;;;24.55;14.13;;;;;;;-0.73;79.96;101175.55;1828865;78;21162;-71
2021/03/18 06:21:56;;;;;;;44.13;25.88;;;;;;;-0.66;79.99;101171.68;1816290;78;21174;-73
2021/03/18 06:24:25;;;;;;;51.75;30.85;;;;;;;-0.39;79.99;101173.80;1796511;79;21549;-70
2021/03/18 06:26:52;;;;;;;101.33;47.43;;;;;;;-0.09;79.97;101177.38;1769704;79;21197;-70
2021/03/18 06:29:35;;;;;;;104.07;46.40;;;;;;;0.05;79.99;101176.16;1800644;78;21861;-71
2021/03/18 06:32:20;;;;;;;64.75;31.40;;;;;;;0.20;80.04;101179.26;1816820;78;21116;-71
2021/03/18 06:34:54;;;;;;;62.50;33.08;;;;;;;0.22;80.10;101186.56;1798370;78;21545;-70
2021/03/18 06:37:43;;;;;;;76.80;33.18;;;;;;;0.17;80.11;101189.92;1800752;78;21698;-71
2021/03/18 06:40:27;;;;;;;29.77;17.37;;;;;;;0.16;80.17;101192.16;1803054;78;21329;-71
2021/03/18 06:42:56;;;;;;;47.30;25.12;;;;;;;0.20;80.17;101198.93;1796541;79;21154;-71
2021/03/18 06:45:31;;;;;;;44.67;22.75;;;;;;;0.21;80.17;101201.09;1804801;78;21130;-71
2021/03/18 06:48:03;;;;;;;43.65;21.17;;;;;;;0.27;80.17;101195.04;1810139;78;21175;-70
2021/03/18 06:50:34;;;;;;;46.10;27.48;;;;;;;0.26;80.20;101199.89;1826823;78;21191;-71
2021/03/18 06:53:00;;;;;;;63.92;30.10;;;;;;;0.27;80.17;101196.81;1810648;77;22174;-71
2021/03/18 06:55:32;;;;;;;42.17;23.57;;;;;;;0.33;80.13;101189.44;1862729;77;21170;-71
2021/03/18 06:58:19;;;;;;;58.98;27.00;;;;;;;0.44;80.11;101192.78;1847646;77;21596;-71
2021/03/18 07:00:54;;;;;;;55.73;32.50;;;;;;;0.56;80.11;101199.97;1828214;78;21186;-71
2021/03/18 07:03:34;;;;;;;60.55;28.57;;;;;;;0.62;80.09;101201.39;1828165;78;21170;-71
2021/03/18 07:06:03;;;;;;;53.38;26.55;;;;;;;0.65;80.10;101201.21;1828996;78;22096;-71
2021/03/18 07:08:39;;;;;;;57.40;30.23;;;;;;;0.80;80.09;101192.47;1829218;78;21124;-71
2021/03/18 07:11:22;;;;;;;42.38;23.52;;;;;;;0.85;80.08;101190.41;1816421;78;21139;-71
2021/03/18 07:13:50;;;;;;;47.30;28.80;;;;;;;0.91;80.05;101196.64;1816972;78;21127;-71
2021/03/18 07:16:17;;;;;;;48.68;27.82;;;;;;;0.91;80.01;101194.02;1821727;78;21166;-71
2021/03/18 07:18:56;;;;;;;57.67;29.82;;;;;;;1.01;79.99;101188.60;1814926;77;21585;-71
2021/03/18 07:21:40;;;;;;;47.10;25.68;;;;;;;1.23;79.93;101190.81;1820319;77;21514;-70
2021/03/18 07:24:27;;;;;;;41.13;23.05;;;;;;;1.33;79.82;101187.55;1812389;78;21558;-70
2021/03/18 07:26:55;;;;;;;50.98;25.88;;;;;;;1.23;79.85;101191.62;1816271;78;21622;-71
2021/03/18 07:29:25;;;;;;;54.00;28.02;;;;;;;1.05;79.86;101180.92;1815177;77;21142;-71
2021/03/18 07:31:51;;;;;;;60.35;30.85;;;;;;;0.84;79.82;101186.11;1829507;78;21187;-71
2021/03/18 07:34:18;;;;;;;55.65;30.95;;;;;;;0.80;79.78;101176.25;1815052;78;21169;-71
2021/03/18 07:36:45;;;;;;;68.00;39.15;;;;;;;1.08;79.76;101179.42;1817400;78;21164;-71
2021/03/18 07:39:12;;;;;;;65.62;33.25;;;;;;;1.40;79.70;101178.36;1814616;78;21576;-71
2021/03/18 07:41:38;;;;;;;61.80;30.05;;;;;;;1.71;79.67;101172.53;1828327;78;21116;-71
2021/03/18 07:44:06;;;;;;;57.03;29.00;;;;;;;1.94;79.66;101179.36;1812560;77;22115;-71
2021/03/18 07:46:36;;;;;;;49.53;27.75;;;;;;;2.13;79.68;101177.74;1825071;78;21179;-71
2021/03/18 07:49:13;;;;;;;83.87;36.03;;;;;;;2.34;79.65;101176.37;1806464;78;21154;-71
2021/03/18 07:51:39;;;;;;;84.50;42.58;;;;;;;2.57;79.59;101176.69;1815216;78;21595;-71
2021/03/18 07:54:06;;;;;;;47.10;27.55;;;;;;;2.65;79.51;101169.95;1821324;77;21108;-71
2021/03/18 07:56:32;;;;;;;56.25;32.17;;;;;;;2.81;79.49;101164.54;1818253;78;22096;-71
2021/03/18 07:59:05;;;;;;;48.90;27.93;;;;;;;2.92;79.43;101167.31;1821485;77;21166;-72
2021/03/18 08:01:35;;;;;;;44.85;25.72;;;;;;;3.05;79.34;101166.85;1820623;77;21179;-71
2021/03/18 08:04:10;;;;;;;49.55;29.37;;;;;;;3.26;79.30;101156.64;1830231;78;21146;-71
2021/03/18 08:06:45;;;;;;;50.12;27.93;;;;;;;3.24;79.25;101151.47;1829029;78;21592;-71
2021/03/18 08:09:27;;;;;;;62.00;35.17;;;;;;;2.98;79.12;101156.36;1824211;78;22107;-72
2021/03/18 08:11:54;;;;;;;64.75;37.15;;;;;;;2.89;79.09;101147.73;1816006;78;21165;-71
2021/03/18 08:14:21;;;;;;;52.05;28.70;;;;;;;2.98;78.99;101143.18;1823411;77;21113;-71
2021/03/18 08:16:47;;;;;;;48.75;26.97;;;;;;;3.12;78.90;101147.05;1819291;78;21579;-72
2021/03/18 08:19:15;;;;;;;46.42;24.75;;;;;;;3.25;78.84;101149.20;1818512;78;21164;-71
2021/03/18 08:21:46;;;;;;;46.55;27.17;;;;;;;3.20;78.76;101140.76;1824422;77;21264;-71
2021/03/18 08:24:21;;;;;;;49.42;24.37;;;;;;;3.21;78.69;101149.52;1820321;77;21631;-71
2021/03/18 08:27:02;;;;;;;39.90;23.98;;;;;;;3.19;78.65;101145.68;1824932;77;21155;-71
2021/03/18 08:29:43;;;;;;;33.08;19.92;;;;;;;3.45;78.61;101142.08;1828882;77;21180;-72
2021/03/18 08:32:13;;;;;;;38.50;21.30;;;;;;;3.78;78.54;101137.57;1818983;77;21148;-72
2021/03/18 08:34:50;;;;;;;30.85;17.67;;;;;;;3.93;78.37;101128.58;1814181;77;22263;-72
2021/03/18 08:37:39;;;;;;;44.65;22.42;;;;;;;3.86;78.27;101129.97;1815953;77;21227;-72
2021/03/18 08:40:23;;;;;;;34.47;18.23;;;;;;;3.65;78.18;101135.44;1825694;77;21126;-72
2021/03/18 08:42:51;;;;;;;36.70;20.32;;;;;;;3.36;78.07;101129.55;1811591;77;21166;-72
2021/03/18 08:45:27;;;;;;;33.35;20.55;;;;;;;3.06;77.97;101129.03;1819551;77;21131;-71
2021/03/18 08:47:56;;;;;;;37.80;25.80;;;;;;;2.95;77.92;101129.75;1823647;77;21230;-71
2021/03/18 08:50:29;;;;;;;42.23;22.02;;;;;;;3.12;77.86;101122.02;1821797;77;21170;-72
2021/03/18 08:52:56;;;;;;;31.33;15.60;;;;;;;3.33;77.79;101125.81;1835103;77;21148;-72
2021/03/18 08:55:40;;;;;;;20.12;10.15;;;;;;;3.49;77.66;101127.74;1811656;77;21179;-71
2021/03/18 08:58:06;;;;;;;23.22;12.03;;;;;;;3.61;77.59;101133.11;1814868;77;21136;-71
2021/03/18 09:00:33;;;;;;;19.80;10.72;;;;;;;3.59;77.48;101127.94;1824645;77;22637;-72
2021/03/18 09:03:00;;;;;;;13.70;7.92;;;;;;;3.76;77.45;101126.77;1821160;77;21164;-71
2021/03/18 09:05:27;;;;;;;16.00;9.10;;;;;;;3.90;77.35;101115.61;1815110;77;21136;-72
2021/03/18 09:07:56;;;;;;;15.10;9.80;;;;;;;4.09;77.29;101126.98;1831868;77;21156;-72
2021/03/18 09:10:30;;;;;;;17.20;10.23;;;;;;;4.18;77.16;101125.02;1823201;77;21580;-72
2021/03/18 09:13:05;;;;;;;18.25;10.78;;;;;;;4.38;77.11;101120.44;1813693;77;22050;-71
2021/03/18 09:15:38;;;;;;;15.25;10.23;;;;;;;4.59;76.99;101118.48;1826567;77;21183;-71
2021/03/18 09:18:22;;;;;;;17.90;13.20;;;;;;;4.73;76.85;101115.17;1815950;77;21175;-72
2021/03/18 09:21:08;;;;;;;24.57;13.13;;;;;;;4.96;76.75;101110.81;1800400;78;21157;-71
2021/03/18 09:23:36;;;;;;;39.75;19.27;;;;;;;5.13;76.60;101114.33;1792896;79;21162;-71
2021/03/18 09:26:06;;;;;;;17.42;9.70;;;;;;;5.36;76.41;101118.67;1797472;78;22093;-71
2021/03/18 09:28:37;;;;;;;22.60;11.18;;;;;;;5.18;76.18;101116.59;1818822;78;21199;-71
2021/03/18 09:31:03;;;;;;;34.30;17.48;;;;;;;4.87;75.98;101116.77;1823039;78;21643;-72
2021/03/18 09:33:41;;;;;;;30.23;14.58;;;;;;;4.67;75.77;101114.80;1799108;78;21107;-72
2021/03/18 09:36:24;;;;;;;30.82;17.67;;;;;;;4.54;75.61;101117.02;1810715;78;21550;-72
2021/03/18 09:39:13;;;;;;;20.62;12.37;;;;;;;4.64;75.51;101115.03;1816746;78;21196;-72
2021/03/18 09:41:45;;;;;;;28.65;16.00;;;;;;;4.56;75.32;101110.78;1817560;78;21131;-72
2021/03/18 09:44:22;;;;;;;31.00;16.57;;;;;;;4.81;75.21;101104.03;1805078;78;21146;-72
2021/03/18 09:47:02;;;;;;;26.42;15.53;;;;;;;4.72;74.96;101104.23;1804704;78;22717;-70
2021/03/18 09:49:40;;;;;;;26.65;13.95;;;;;;;4.58;74.83;101104.89;1809421;78;21164;-70
2021/03/18 09:52:11;;;;;;;35.63;15.28;;;;;;;4.49;74.73;101099.36;1810791;78;21196;-72
2021/03/18 09:54:38;;;;;;;36.00;19.87;;;;;;;4.40;74.59;101098.70;1817013;78;21496;-72
2021/03/18 09:57:06;;;;;;;20.97;13.70;;;;;;;4.43;74.50;101102.44;1784333;79;21124;-72
2021/03/18 09:59:33;;;;;;;30.02;20.62;;;;;;;4.57;74.40;101101.44;1771173;79;21621;-71
2021/03/18 10:01:59;;;;;;;44.38;19.60;;;;;;;4.56;74.26;101098.90;1787994;79;21190;-72
2021/03/18 10:04:26;;;;;;;26.97;14.70;;;;;;;4.39;74.17;101097.05;1784163;79;21191;-71
2021/03/18 10:06:57;;;;;;;40.05;16.75;;;;;;;4.22;74.07;101107.16;1754106;81;21175;-72
2021/03/18 10:09:28;;;;;;;24.35;15.70;;;;;;;4.15;74.02;101105.92;1765532;80;21163;-71
2021/03/18 10:12:00;;;;;;;29.55;14.47;;;;;;;4.20;73.97;101103.30;1781033;80;21171;-71
2021/03/18 10:14:37;;;;;;;24.20;13.90;;;;;;;4.22;73.89;101093.95;1741536;81;21720;-71
2021/03/18 10:17:12;;;;;;;28.85;12.88;;;;;;;4.22;73.80;101101.37;1785159;80;22138;-71
2021/03/18 10:19:55;;;;;;;31.25;15.35;;;;;;;4.32;73.76;101091.85;1779640;80;21687;-72
2021/03/18 10:22:23;;;;;;;22.93;13.93;;;;;;;4.38;73.70;101092.71;1778104;80;21158;-72
2021/03/18 10:25:11;;;;;;;19.92;11.80;;;;;;;4.59;73.64;101096.02;1776146;79;21148;-71
2021/03/18 10:27:46;;;;;;;18.52;11.73;;;;;;;4.91;73.56;101091.80;1785418;80;21123;-72
2021/03/18 10:30:20;;;;;;;24.05;16.37;;;;;;;5.25;73.43;101088.72;1768476;80;21147;-72
2021/03/18 10:33:09;;;;;;;19.20;11.25;;;;;;;5.45;73.30;101089.36;1748700;80;21152;-72
2021/03/18 10:35:46;;;;;;;18.17;11.43;;;;;;;5.77;73.18;101078.88;1777811;80;21310;-72
2021/03/18 10:38:15;;;;;;;16.62;9.60;;;;;;;6.05;72.99;101071.75;1753504;80;21136;-72
2021/03/18 10:40:44;;;;;;;18.32;10.50;;;;;;;6.23;72.74;101071.55;1758882;80;21624;-72
2021/03/18 10:43:21;;;;;;;18.10;9.50;;;;;;;6.22;72.57;101069.05;1779047;80;21191;-71
2021/03/18 10:45:48;;;;;;;14.30;8.65;;;;;;;6.15;72.39;101071.36;1760394;80;21188;-71
2021/03/18 10:48:22;;;;;;;15.58;9.38;;;;;;;6.02;72.20;101066.67;1775640;80;21145;-71
2021/03/18 10:50:49;;;;;;;21.02;10.30;;;;;;;6.04;72.05;101071.38;1783518;80;21198;-71
2021/03/18 10:53:15;;;;;;;24.00;12.25;;;;;;;5.91;71.86;101070.70;1755267;80;21136;-71
2021/03/18 10:55:46;;;;;;;25.50;14.60;;;;;;;5.87;71.68;101067.46;1778305;80;21660;-71
2021/03/18 10:58:21;;;;;;;15.00;10.23;;;;;;;5.91;71.51;101062.77;1776617;80;21143;-71
2021/03/18 11:00:49;;;;;;;27.52;18.75;;;;;;;5.77;71.23;101063.00;1778009;80;21124;-72
2021/03/18 11:03:17;;;;;;;20.60;12.43;;;;;;;5.52;71.04;101060.14;1778504;80;21057;-71
2021/03/18 11:05:50;;;;;;;54.67;35.25;;;;;;;5.40;70.92;101057.97;1776592;80;21159;-71
2021/03/18 11:08:26;;;;;;;36.10;16.12;;;;;;;5.27;70.79;101057.26;1769445;80;22153;-71
2021/03/18 11:10:53;;;;;;;56.00;30.95;;;;;;;5.25;70.71;101063.60;1788307;80;21128;-71
2021/03/18 11:13:26;;;;;;;27.62;15.25;;;;;;;5.22;70.69;101058.08;1772387;80;21135;-71
2021/03/18 11:16:04;;;;;;;40.33;19.85;;;;;;;5.18;70.61;101048.70;1757106;81;21184;-71
2021/03/18 11:18:42;;;;;;;25.20;15.25;;;;;;;5.02;70.53;101052.19;1757324;81;21139;-71
2021/03/18 11:21:34;;;;;;;31.73;16.15;;;;;;;4.98;70.50;101059.51;1757321;81;21203;-71
2021/03/18 11:24:17;;;;;;;25.75;16.35;;;;;;;4.87;70.50;101055.52;1756939;81;21183;-71
2021/03/18 11:26:54;;;;;;;25.95;15.88;;;;;;;4.81;70.52;101048.55;1788185;80;21132;-71
2021/03/18 11:29:22;;;;;;;30.95;19.10;;;;;;;4.62;70.44;101049.56;1787968;80;21550;-71
2021/03/18 11:31:54;;;;;;;30.27;17.95;;;;;;;4.52;70.47;101041.03;1788394;80;21163;-71
2021/03/18 11:34:26;;;;;;;30.77;18.35;;;;;;;4.51;70.49;101041.98;1788576;80;21158;-72
2021/03/18 11:36:57;;;;;;;38.60;21.02;;;;;;;4.47;70.47;101040.99;1788431;80;21656;-71
2021/03/18 11:39:23;;;;;;;32.70;19.05;;;;;;;4.43;70.50;101039.56;1788069;80;21151;-71
2021/03/18 11:41:51;;;;;;;33.78;18.87;;;;;;;4.39;70.52;101035.47;1788658;80;21152;-71
2021/03/18 11:44:18;;;;;;;30.48;19.00;;;;;;;4.44;70.55;101035.47;1788324;80;21100;-71
2021/03/18 11:46:44;;;;;;;31.33;17.40;;;;;;;4.52;70.61;101024.34;1774966;80;21820;-71
2021/03/18 11:49:11;;;;;;;22.40;14.15;;;;;;;4.59;70.63;101022.06;1758979;81;21179;-72